Time;durP1;ratioP1;P1;durP2;ratioP2;P2;SDS_P1;SDS_P2;PMS_P1;PMS_P2;Temp;Humidity;BMP_temperature;BMP_pressure;BME280_temperature;BME280_humidity;BME280_pressure;Samples;Min_cycle;Max_cycle;Signal;HPM_P1;HPM_P2
2022/03/24 00:00:52;;;;;;;12.95;10.70;;;17.60;99.90;;;;;;5082024;28;20471;-86
2022/03/24 00:03:20;;;;;;;15.80;11.77;;;17.60;99.90;;;;;;5060521;28;20398;-91
2022/03/24 00:05:47;;;;;;;14.18;9.93;;;17.60;99.90;;;;;;5061984;28;20390;-89
2022/03/24 00:08:14;;;;;;;14.13;10.05;;;17.60;99.90;;;;;;5051594;28;20400;-81
2022/03/24 00:10:41;;;;;;;13.07;9.70;;;17.60;99.90;;;;;;5052085;28;20409;-83
2022/03/24 00:13:08;;;;;;;13.98;8.57;;;17.60;99.90;;;;;;5075696;28;20385;-80
2022/03/24 00:15:35;;;;;;;12.88;9.32;;;17.60;99.90;;;;;;5070724;28;20834;-81
2022/03/24 00:18:02;;;;;;;13.55;8.82;;;17.60;99.90;;;;;;5076027;28;20380;-90
2022/03/24 00:20:29;;;;;;;7.82;6.22;;;17.60;99.90;;;;;;5062137;28;20394;-84
2022/03/24 00:22:59;;;;;;;9.20;6.47;;;17.60;99.90;;;;;;5072538;28;20393;-79
2022/03/24 00:25:26;;;;;;;11.48;7.85;;;17.60;99.90;;;;;;5053972;28;20893;-83
2022/03/24 00:27:53;;;;;;;10.95;7.43;;;17.60;99.90;;;;;;5070760;28;20389;-86
2022/03/24 00:30:21;;;;;;;12.30;7.72;;;17.60;99.90;;;;;;5071868;28;20969;-85
2022/03/24 00:32:48;;;;;;;11.88;8.25;;;17.60;99.90;;;;;;5069557;28;20422;-85
2022/03/24 00:35:16;;;;;;;11.38;7.00;;;17.60;99.90;;;;;;5071927;28;20373;-85
2022/03/24 00:37:43;;;;;;;14.77;7.90;;;17.60;99.90;;;;;;5070766;28;20732;-81
2022/03/24 00:40:10;;;;;;;15.95;8.10;;;17.60;99.90;;;;;;5073244;28;20374;-83
2022/03/24 00:42:38;;;;;;;16.05;8.85;;;17.60;99.90;;;;;;5073244;28;20431;-81
2022/03/24 00:45:12;;;;;;;16.95;8.63;;;17.60;99.90;;;;;;5069777;28;20469;-78
2022/03/24 00:47:43;;;;;;;14.70;8.50;;;17.60;99.90;;;;;;5074004;28;20461;-77
2022/03/24 00:50:12;;;;;;;16.17;9.88;;;17.60;99.90;;;;;;5090770;28;20428;-84
2022/03/24 00:52:43;;;;;;;16.88;9.65;;;17.60;99.90;;;;;;5090993;28;20454;-84
2022/03/24 00:55:12;;;;;;;11.32;8.13;;;17.50;99.90;;;;;;5089918;28;20844;-80
2022/03/24 00:57:40;;;;;;;10.60;8.57;;;17.80;99.90;;;;;;5084163;28;20423;-85
2022/03/24 01:00:19;;;;;;;10.68;7.93;;;17.80;99.90;;;;;;5091373;28;20382;-84
2022/03/24 01:02:49;;;;;;;8.75;6.60;;;17.70;99.90;;;;;;5100586;28;20848;-83
2022/03/24 01:05:17;;;;;;;9.10;7.05;;;17.70;99.90;;;;;;5090809;28;20441;-82
2022/03/24 01:07:45;;;;;;;10.73;7.60;;;17.60;99.90;;;;;;5090821;28;20373;-79
2022/03/24 01:10:14;;;;;;;10.05;7.80;;;17.70;99.90;;;;;;5088915;28;20487;-77
2022/03/24 01:12:42;;;;;;;9.93;8.18;;;17.70;99.90;;;;;;5092025;28;20375;-79
2022/03/24 01:15:11;;;;;;;10.70;7.30;;;17.70;99.90;;;;;;5090861;28;20376;-80
2022/03/24 01:17:38;;;;;;;8.70;6.97;;;17.70;99.90;;;;;;5091150;28;20372;-88
2022/03/24 01:20:06;;;;;;;8.90;5.68;;;17.80;99.90;;;;;;5091069;28;20879;-81
2022/03/24 01:22:32;;;;;;;8.27;5.40;;;17.80;99.90;;;;;;5091251;28;20385;-83
2022/03/24 01:24:59;;;;;;;11.73;6.82;;;17.70;99.90;;;;;;5090852;28;20383;-85
2022/03/24 01:27:28;;;;;;;6.80;5.65;;;17.70;99.90;;;;;;5095512;28;20778;-83
2022/03/24 01:29:56;;;;;;;7.00;6.30;;;17.80;99.90;;;;;;5094248;28;20461;-83
2022/03/24 01:32:26;;;;;;;6.97;5.28;;;17.70;99.90;;;;;;5093960;28;20385;-89
2022/03/24 01:34:54;;;;;;;6.60;5.30;;;17.90;99.90;;;;;;5094165;28;20373;-82
2022/03/24 01:37:25;;;;;;;10.50;5.40;;;17.90;99.90;;;;;;5094013;28;20815;-77
2022/03/24 01:39:53;;;;;;;9.77;7.40;;;18.00;99.90;;;;;;5092667;28;20392;-81
2022/03/24 01:42:20;;;;;;;9.07;5.88;;;18.20;99.90;;;;;;5093713;28;20387;-78
2022/03/24 01:44:48;;;;;;;9.20;4.82;;;18.20;99.90;;;;;;5093449;28;20383;-88
2022/03/24 01:47:16;;;;;;;8.25;4.68;;;18.20;99.90;;;;;;5094641;28;20873;-77
2022/03/24 01:49:47;;;;;;;7.43;4.05;;;18.20;99.90;;;;;;5090836;28;20405;-85
2022/03/24 01:52:16;;;;;;;7.95;3.58;;;18.30;99.90;;;;;;5092949;28;20435;-76
2022/03/24 01:54:48;;;;;;;8.65;3.42;;;18.40;99.90;;;;;;5093293;28;20417;-84
2022/03/24 01:57:17;;;;;;;8.50;4.25;;;18.50;99.90;;;;;;5093822;28;20364;-80
2022/03/24 01:59:44;;;;;;;8.20;4.57;;;18.50;99.90;;;;;;5093660;28;20384;-77
2022/03/24 02:02:14;;;;;;;11.80;7.43;;;18.50;99.90;;;;;;5093830;28;20728;-82
2022/03/24 02:04:43;;;;;;;10.10;6.68;;;18.40;99.90;;;;;;5093321;28;20425;-80
2022/03/24 02:07:10;;;;;;;12.82;7.65;;;18.50;99.90;;;;;;5093058;28;20383;-78
2022/03/24 02:09:38;;;;;;;10.95;7.20;;;18.50;99.90;;;;;;5093002;28;20364;-85
2022/03/24 02:12:11;;;;;;;11.88;8.27;;;18.60;99.90;;;;;;5092958;28;20385;-87
2022/03/24 02:14:38;;;;;;;13.43;9.20;;;18.60;99.90;;;;;;5093316;28;20383;-78
2022/03/24 02:17:06;;;;;;;13.90;7.97;;;18.70;99.90;;;;;;5093134;28;20376;-86
2022/03/24 02:19:36;;;;;;;12.23;7.95;;;18.70;99.90;;;;;;5093780;28;20460;-80
2022/03/24 02:22:13;;;;;;;12.88;8.73;;;18.80;99.90;;;;;;5092830;28;20400;-77
2022/03/24 02:24:40;;;;;;;17.45;9.35;;;18.90;99.90;;;;;;5092823;28;20373;-76
2022/03/24 02:27:08;;;;;;;15.52;10.05;;;18.80;99.90;;;;;;5092625;28;20384;-80
2022/03/24 02:29:35;;;;;;;18.42;10.23;;;18.70;99.90;;;;;;5092449;28;20368;-80
2022/03/24 02:32:07;;;;;;;17.17;11.18;;;18.70;99.90;;;;;;5092561;28;20376;-80
2022/03/24 02:34:47;;;;;;;19.48;12.77;;;18.90;99.90;;;;;;5092582;28;20749;-87
2022/03/24 02:37:28;;;;;;;17.38;11.70;;;19.10;99.90;;;;;;5091873;28;20388;-81
2022/03/24 02:39:56;;;;;;;20.88;14.18;;;19.30;99.90;;;;;;5091224;28;20410;-89
2022/03/24 02:42:26;;;;;;;16.02;8.20;;;19.40;99.90;;;;;;5093295;28;20373;-76
2022/03/24 02:44:55;;;;;;;10.43;6.43;;;19.60;99.90;;;;;;5092484;28;20382;-82
2022/03/24 02:47:23;;;;;;;10.18;4.88;;;19.60;99.90;;;;;;5091737;28;20392;-78
2022/03/24 02:49:53;;;;;;;9.75;4.97;;;19.80;99.90;;;;;;5092158;28;20373;-77
2022/03/24 02:52:20;;;;;;;11.27;4.50;;;19.90;99.90;;;;;;5092468;28;20900;-78
2022/03/24 02:54:47;;;;;;;10.88;5.00;;;19.90;99.90;;;;;;5092108;28;20749;-81
2022/03/24 02:57:15;;;;;;;11.70;3.92;;;19.70;99.90;;;;;;5090759;28;20388;-84
2022/03/24 02:59:42;;;;;;;10.82;3.25;;;19.40;99.90;;;;;;5092314;28;20725;-80
2022/03/24 03:02:14;;;;;;;9.75;3.30;;;19.40;99.90;;;;;;5093420;28;20480;-78
2022/03/24 03:04:48;;;;;;;8.05;3.10;;;19.40;99.90;;;;;;5094196;28;20368;-76
2022/03/24 03:07:16;;;;;;;10.75;3.13;;;19.40;99.90;;;;;;5094320;28;20381;-77
2022/03/24 03:09:43;;;;;;;8.15;3.00;;;19.40;99.90;;;;;;5094282;28;20418;-77
2022/03/24 03:12:11;;;;;;;8.63;3.95;;;19.60;99.90;;;;;;5094543;28;20460;-83
2022/03/24 03:14:39;;;;;;;7.47;3.30;;;19.80;99.90;;;;;;5093914;28;20376;-77
2022/03/24 03:17:07;;;;;;;8.18;3.30;;;19.90;99.90;;;;;;5095668;28;20808;-75
2022/03/24 03:19:34;;;;;;;10.30;4.28;;;19.90;99.90;;;;;;5096092;28;20706;-80
2022/03/24 03:22:03;;;;;;;11.23;5.40;;;19.80;99.90;;;;;;5095185;28;20383;-78
2022/03/24 03:24:30;;;;;;;13.90;7.32;;;19.80;99.90;;;;;;5093381;28;20387;-84
2022/03/24 03:26:57;;;;;;;20.73;13.73;;;19.80;99.90;;;;;;5094065;28;20754;-77
2022/03/24 03:29:24;;;;;;;9.32;3.17;;;20.00;99.90;;;;;;5093854;28;20368;-84
2022/03/24 03:31:55;;;;;;;8.13;3.25;;;20.10;99.90;;;;;;5091918;28;20412;-87
2022/03/24 03:34:24;;;;;;;8.77;3.33;;;19.90;99.90;;;;;;5091667;28;20376;-76
2022/03/24 03:36:53;;;;;;;9.90;3.15;;;19.70;99.90;;;;;;5091767;28;21068;-87
2022/03/24 03:39:21;;;;;;;9.07;3.50;;;19.70;99.90;;;;;;5091999;28;20377;-86
2022/03/24 03:41:48;;;;;;;10.98;3.47;;;19.60;99.90;;;;;;5091975;28;20714;-83
2022/03/24 03:44:15;;;;;;;10.50;3.40;;;19.50;99.90;;;;;;5091997;28;20377;-83
2022/03/24 03:46:43;;;;;;;12.83;3.73;;;19.40;99.90;;;;;;5091841;28;20469;-87
2022/03/24 03:49:10;;;;;;;8.38;2.88;;;19.50;99.90;;;;;;5090734;28;20421;-79
2022/03/24 03:51:38;;;;;;;10.80;3.50;;;19.40;99.90;;;;;;5091627;28;20812;-79
2022/03/24 03:54:07;;;;;;;9.32;2.90;;;19.30;99.90;;;;;;5091415;28;20767;-86
2022/03/24 03:56:36;;;;;;;8.10;2.83;;;19.30;99.90;;;;;;5091813;28;20376;-87
2022/03/24 03:59:04;;;;;;;10.55;3.20;;;19.20;99.90;;;;;;5092219;28;20372;-84
2022/03/24 04:01:30;;;;;;;11.07;3.80;;;19.10;99.90;;;;;;5093935;28;20467;-87
2022/03/24 04:03:58;;;;;;;12.67;3.77;;;18.90;99.90;;;;;;5094061;28;20442;-76
2022/03/24 04:06:25;;;;;;;14.80;5.17;;;18.80;99.90;;;;;;5095696;28;20513;-78
2022/03/24 04:08:52;;;;;;;13.98;5.05;;;18.80;99.90;;;;;;5094299;28;20371;-88
2022/03/24 04:11:19;;;;;;;12.65;4.05;;;18.90;99.90;;;;;;5092848;28;20431;-82
2022/03/24 04:13:46;;;;;;;12.35;3.35;;;18.90;99.90;;;;;;5092535;28;20364;-83
2022/03/24 04:16:13;;;;;;;9.35;2.80;;;18.80;99.90;;;;;;5091530;28;20596;-85
2022/03/24 04:18:46;;;;;;;11.82;3.40;;;18.70;99.90;;;;;;5091730;28;20365;-88
2022/03/24 04:21:13;;;;;;;10.90;3.10;;;18.60;99.90;;;;;;5091549;28;20797;-75
2022/03/24 04:23:42;;;;;;;9.05;3.05;;;18.70;99.90;;;;;;5091217;28;20361;-82
2022/03/24 04:26:12;;;;;;;9.53;2.70;;;18.80;99.90;;;;;;5091380;28;20369;-88
2022/03/24 04:28:41;;;;;;;6.60;2.38;;;19.00;99.90;;;;;;5090743;28;20848;-84
2022/03/24 04:31:09;;;;;;;7.30;2.10;;;19.20;99.90;;;;;;5090534;28;20411;-86
2022/03/24 04:33:37;;;;;;;6.22;2.00;;;19.50;99.90;;;;;;5090806;28;20372;-76
2022/03/24 04:36:08;;;;;;;4.90;2.10;;;19.80;99.90;;;;;;5090442;28;20388;-76
2022/03/24 04:38:36;;;;;;;6.70;1.95;;;19.90;99.90;;;;;;5090918;28;20384;-83
2022/03/24 04:41:04;;;;;;;6.50;2.15;;;19.90;99.90;;;;;;5090919;28;20424;-84
2022/03/24 04:43:32;;;;;;;6.93;2.13;;;20.10;99.90;;;;;;5090190;28;20383;-89
2022/03/24 04:45:59;;;;;;;5.07;2.03;;;20.40;99.90;;;;;;5090853;28;20472;-85
2022/03/24 04:48:26;;;;;;;9.17;2.10;;;20.40;99.90;;;;;;5091030;28;20388;-76
2022/03/24 04:50:53;;;;;;;6.50;2.10;;;20.40;99.90;;;;;;5090348;28;20883;-76
2022/03/24 04:53:20;;;;;;;6.68;2.10;;;20.40;99.90;;;;;;5090857;28;20374;-76
2022/03/24 04:55:47;;;;;;;5.47;1.93;;;20.30;99.90;;;;;;5090857;28;20403;-86
2022/03/24 04:58:14;;;;;;;6.38;2.00;;;20.30;99.90;;;;;;5091009;28;20376;-85
2022/03/24 05:00:42;;;;;;;4.68;1.95;;;20.30;99.90;;;;;;5093470;28;20467;-81
2022/03/24 05:03:10;;;;;;;5.20;1.90;;;20.40;99.90;;;;;;5095597;28;20380;-86
2022/03/24 05:05:37;;;;;;;11.27;2.42;;;20.30;99.90;;;;;;5095944;28;20388;-78
2022/03/24 05:08:04;;;;;;;6.63;2.20;;;20.30;99.90;;;;;;5096581;28;20429;-84
2022/03/24 05:10:32;;;;;;;5.77;2.10;;;20.40;99.90;;;;;;5110968;28;20391;-81
2022/03/24 05:12:59;;;;;;;7.43;2.20;;;20.40;99.90;;;;;;5102934;28;20854;-85
2022/03/24 05:15:27;;;;;;;5.20;1.92;;;20.40;99.90;;;;;;5115365;28;20375;-77
2022/03/24 05:17:54;;;;;;;8.55;2.70;;;20.40;99.90;;;;;;5095783;28;20388;-83
2022/03/24 05:20:21;;;;;;;6.47;2.08;;;20.50;99.90;;;;;;5094418;28;20518;-87
2022/03/24 05:22:48;;;;;;;7.37;2.13;;;20.60;99.90;;;;;;5090109;28;20394;-80
2022/03/24 05:25:15;;;;;;;6.47;2.17;;;20.90;99.90;;;;;;5088416;28;20827;-79
2022/03/24 05:27:42;;;;;;;7.13;2.17;;;21.10;99.90;;;;;;5093368;28;20477;-81
2022/03/24 05:30:10;;;;;;;4.30;2.10;;;21.80;99.90;;;;;;5092712;28;20478;-81
2022/03/24 05:32:40;;;;;;;8.32;2.25;;;22.40;99.90;;;;;;5093228;28;20384;-86
2022/03/24 05:35:07;;;;;;;7.93;2.30;;;22.30;99.90;;;;;;5093328;28;20860;-77
2022/03/24 05:37:34;;;;;;;8.15;2.35;;;22.00;99.90;;;;;;5093730;28;20388;-76
2022/03/24 05:40:01;;;;;;;8.70;2.80;;;21.70;99.90;;;;;;5094874;28;20494;-76
2022/03/24 05:42:28;;;;;;;6.60;2.80;;;21.40;99.90;;;;;;5100537;28;20365;-86
2022/03/24 05:44:55;;;;;;;8.37;3.10;;;21.00;99.90;;;;;;5100252;28;20455;-82
2022/03/24 05:47:23;;;;;;;8.37;3.10;;;20.70;99.90;;;;;;5095020;28;20402;-89
2022/03/24 05:49:51;;;;;;;7.73;3.00;;;20.30;99.90;;;;;;5094430;28;20377;-84
2022/03/24 05:52:18;;;;;;;6.60;2.38;;;20.10;99.90;;;;;;5094542;28;20771;-76
2022/03/24 05:54:45;;;;;;;8.65;2.70;;;20.20;99.90;;;;;;5095488;28;20449;-76
2022/03/24 05:57:12;;;;;;;6.28;2.60;;;20.10;99.90;;;;;;5094660;28;20790;-79
2022/03/24 05:59:39;;;;;;;7.80;2.70;;;20.20;99.90;;;;;;5094822;28;20371;-85
2022/03/24 06:02:06;;;;;;;6.93;2.83;;;20.20;99.90;;;;;;5094925;28;20864;-87
2022/03/24 06:04:34;;;;;;;8.75;2.90;;;20.30;99.90;;;;;;5095118;28;20396;-87
2022/03/24 06:07:01;;;;;;;9.55;2.97;;;20.20;99.90;;;;;;5075316;28;20389;-77
2022/03/24 06:09:29;;;;;;;9.63;3.05;;;20.10;99.90;;;;;;5074172;28;20370;-88
2022/03/24 06:11:57;;;;;;;6.57;2.50;;;19.90;99.90;;;;;;5078906;28;20944;-82
2022/03/24 06:14:25;;;;;;;6.00;2.30;;;19.80;99.90;;;;;;5094702;28;20387;-80
2022/03/24 06:16:52;;;;;;;8.65;2.40;;;19.80;99.90;;;;;;5094482;28;20384;-91
2022/03/24 06:19:22;;;;;;;6.47;2.55;;;19.80;99.90;;;;;;5095019;28;20556;-79
2022/03/24 06:21:49;;;;;;;7.57;2.67;;;19.80;99.90;;;;;;5094722;28;20388;-86
2022/03/24 06:24:16;;;;;;;8.65;2.75;;;19.60;99.90;;;;;;5094545;28;20910;-87
2022/03/24 06:26:43;;;;;;;8.00;2.67;;;19.40;99.90;;;;;;5094577;28;20408;-89
2022/03/24 06:29:11;;;;;;;7.78;2.42;;;19.50;99.90;;;;;;5094696;28;20396;-89
2022/03/24 06:31:38;;;;;;;9.23;3.55;;;19.50;99.90;;;;;;5094252;28;20400;-83
2022/03/24 06:34:05;;;;;;;10.60;4.05;;;19.60;99.90;;;;;;5092803;28;20455;-89
2022/03/24 06:36:32;;;;;;;9.48;4.15;;;19.60;99.90;;;;;;5092450;28;20377;-76
2022/03/24 06:38:59;;;;;;;11.00;4.00;;;19.60;99.90;;;;;;5094049;28;20367;-79
2022/03/24 06:41:26;;;;;;;10.90;3.80;;;19.60;99.90;;;;;;5094374;28;20476;-78
2022/03/24 06:43:57;;;;;;;10.27;3.30;;;19.60;99.90;;;;;;5088565;28;20372;-89
2022/03/24 06:46:28;;;;;;;11.18;3.60;;;19.60;99.90;;;;;;5091124;28;20722;-76
2022/03/24 06:48:55;;;;;;;9.38;3.75;;;19.60;99.90;;;;;;5085732;28;20392;-79
2022/03/24 06:51:22;;;;;;;10.05;3.47;;;19.40;99.90;;;;;;5080313;28;20410;-80
2022/03/24 06:53:49;;;;;;;9.00;3.40;;;19.30;99.90;;;;;;5089513;28;20372;-86
2022/03/24 06:56:16;;;;;;;8.63;4.00;;;19.30;99.90;;;;;;5090157;28;20536;-76
2022/03/24 06:58:45;;;;;;;13.88;3.90;;;19.30;99.90;;;;;;5090912;28;20387;-88
2022/03/24 07:01:12;;;;;;;11.38;4.07;;;19.20;99.90;;;;;;5091608;28;20400;-83
2022/03/24 07:03:40;;;;;;;10.23;4.30;;;19.20;99.90;;;;;;5091038;28;20372;-75
2022/03/24 07:06:07;;;;;;;10.57;4.40;;;19.10;99.90;;;;;;5091828;28;20377;-83
2022/03/24 07:08:35;;;;;;;13.20;4.53;;;19.10;99.90;;;;;;5090959;28;20365;-83
2022/03/24 07:11:03;;;;;;;13.73;4.60;;;19.10;99.90;;;;;;5090990;28;20497;-80
2022/03/24 07:13:31;;;;;;;10.27;3.87;;;19.00;99.90;;;;;;5088148;28;20384;-81
2022/03/24 07:15:58;;;;;;;11.02;4.38;;;19.00;99.90;;;;;;5090920;28;20471;-80
2022/03/24 07:18:25;;;;;;;12.93;4.43;;;19.00;99.90;;;;;;5091058;28;21148;-87
2022/03/24 07:20:52;;;;;;;12.15;4.63;;;18.90;99.90;;;;;;5090817;28;20465;-81
2022/03/24 07:23:20;;;;;;;11.00;4.10;;;18.90;99.90;;;;;;5090449;28;20969;-78
2022/03/24 07:25:47;;;;;;;10.10;3.70;;;18.90;99.90;;;;;;5076835;28;20394;-88
2022/03/24 07:28:14;;;;;;;12.00;3.53;;;18.90;99.90;;;;;;5070743;28;20381;-82
2022/03/24 07:30:43;;;;;;;9.88;3.70;;;18.80;99.90;;;;;;5088175;28;20479;-77
2022/03/24 07:33:11;;;;;;;9.57;4.05;;;18.80;99.90;;;;;;5091671;28;20372;-75
2022/03/24 07:35:38;;;;;;;11.15;4.13;;;18.70;99.90;;;;;;5090343;28;20392;-79
2022/03/24 07:38:06;;;;;;;9.30;3.67;;;18.70;99.90;;;;;;5091017;28;20371;-87
2022/03/24 07:40:34;;;;;;;9.48;4.30;;;18.70;99.90;;;;;;5090385;28;20393;-86
2022/03/24 07:43:01;;;;;;;12.77;4.70;;;18.60;99.90;;;;;;5090884;28;20412;-83
2022/03/24 07:45:29;;;;;;;9.60;5.18;;;18.60;99.90;;;;;;5090673;28;20495;-81
2022/03/24 07:48:17;;;;;;;18.60;5.50;;;18.50;99.90;;;;;;5090764;28;20465;-84
2022/03/24 07:50:49;;;;;;;10.38;5.60;;;18.50;99.90;;;;;;5090078;28;20536;-87
2022/03/24 07:53:16;;;;;;;9.10;4.78;;;18.40;99.90;;;;;;5089119;28;20405;-85
2022/03/24 07:55:47;;;;;;;10.35;4.85;;;18.40;99.90;;;;;;5089184;28;20405;-85
2022/03/24 07:58:17;;;;;;;10.55;4.20;;;18.40;99.90;;;;;;5089680;28;20729;-82
2022/03/24 08:00:45;;;;;;;8.68;3.60;;;18.30;99.90;;;;;;5090640;28;20409;-84
2022/03/24 08:03:14;;;;;;;10.50;3.50;;;18.30;99.90;;;;;;5090107;28;20388;-76
2022/03/24 08:05:42;;;;;;;10.40;3.75;;;18.20;99.90;;;;;;5089265;28;20389;-83
2022/03/24 08:08:10;;;;;;;8.40;3.13;;;18.20;99.90;;;;;;5090513;28;20371;-76
2022/03/24 08:10:39;;;;;;;10.52;3.53;;;18.20;99.90;;;;;;5089944;28;21138;-81
2022/03/24 08:13:10;;;;;;;8.77;3.63;;;18.10;99.90;;;;;;5088319;28;20388;-82
2022/03/24 08:15:38;;;;;;;8.57;3.72;;;18.10;99.90;;;;;;5090682;28;20365;-85
2022/03/24 08:18:07;;;;;;;8.45;3.70;;;18.10;99.90;;;;;;5091037;28;20412;-87
2022/03/24 08:20:35;;;;;;;10.02;3.90;;;18.00;99.90;;;;;;5090436;28;20368;-84
2022/03/24 08:23:08;;;;;;;8.70;4.18;;;18.00;99.90;;;;;;5090798;28;20407;-76
2022/03/24 08:25:36;;;;;;;12.75;4.55;;;18.00;99.90;;;;;;5090399;28;20452;-81
2022/03/24 08:28:03;;;;;;;9.07;3.85;;;18.00;99.90;;;;;;5089440;28;20429;-82
2022/03/24 08:30:30;;;;;;;9.90;4.90;;;18.00;99.90;;;;;;5089774;28;20499;-79
2022/03/24 08:32:57;;;;;;;10.38;4.82;;;18.00;99.90;;;;;;5090476;28;20836;-81
2022/03/24 08:35:25;;;;;;;10.40;5.13;;;17.90;99.90;;;;;;5091736;28;20371;-85
2022/03/24 08:37:52;;;;;;;9.93;4.68;;;18.00;99.90;;;;;;5092096;28;20406;-84
2022/03/24 08:40:19;;;;;;;9.30;4.30;;;18.00;99.90;;;;;;5093570;28;20420;-81
2022/03/24 08:42:46;;;;;;;9.63;3.80;;;17.90;99.90;;;;;;5093537;28;20384;-82
2022/03/24 08:45:15;;;;;;;11.68;3.88;;;17.90;99.90;;;;;;5093813;28;20383;-83
2022/03/24 08:47:44;;;;;;;11.20;4.13;;;17.90;99.90;;;;;;5091953;28;20787;-83
2022/03/24 08:50:12;;;;;;;11.52;4.00;;;17.80;99.90;;;;;;5093271;28;20424;-86
2022/03/24 08:52:41;;;;;;;9.73;4.10;;;17.90;99.90;;;;;;5093215;28;20433;-84
2022/03/24 08:55:13;;;;;;;10.88;4.30;;;17.90;99.90;;;;;;5081195;28;20372;-85
2022/03/24 08:57:40;;;;;;;9.23;4.35;;;17.90;99.90;;;;;;5093691;28;20431;-80
2022/03/24 09:00:12;;;;;;;11.63;4.50;;;17.90;99.90;;;;;;5092988;28;20516;-85
2022/03/24 09:02:41;;;;;;;9.98;4.80;;;18.00;99.90;;;;;;5092301;28;20434;-87
2022/03/24 09:05:08;;;;;;;11.88;4.88;;;17.90;99.90;;;;;;5094084;28;20388;-87
2022/03/24 09:07:38;;;;;;;12.52;4.90;;;18.00;99.90;;;;;;5093384;28;20419;-87
2022/03/24 09:10:07;;;;;;;10.00;4.90;;;18.00;99.90;;;;;;5093514;28;20372;-83
2022/03/24 09:12:40;;;;;;;12.73;4.90;;;18.00;99.90;;;;;;5093896;28;20377;-86
2022/03/24 09:15:10;;;;;;;9.17;4.90;;;18.00;99.90;;;;;;5094156;28;20405;-85
2022/03/24 09:17:42;;;;;;;10.93;4.65;;;18.00;99.90;;;;;;5084947;28;20395;-84
2022/03/24 09:20:12;;;;;;;11.05;5.18;;;18.00;99.90;;;;;;5079423;28;20434;-85
2022/03/24 09:22:44;;;;;;;9.93;4.53;;;18.00;99.90;;;;;;5093287;28;20376;-84
2022/03/24 09:25:15;;;;;;;9.13;3.80;;;18.00;99.90;;;;;;5093699;28;20384;-85
2022/03/24 09:27:46;;;;;;;8.75;3.83;;;18.00;99.90;;;;;;5091943;28;20392;-85
2022/03/24 09:30:18;;;;;;;9.88;4.10;;;18.20;99.90;;;;;;5093676;28;20404;-86
2022/03/24 09:32:47;;;;;;;8.77;4.20;;;18.20;99.90;;;;;;5093432;28;20379;-82
2022/03/24 09:35:15;;;;;;;10.07;5.07;;;18.30;99.90;;;;;;5073482;28;20366;-87
2022/03/24 09:37:42;;;;;;;10.30;5.50;;;18.30;99.90;;;;;;5086181;28;20379;-82
2022/03/24 09:40:11;;;;;;;10.45;5.50;;;18.30;99.90;;;;;;5092899;28;20931;-85
2022/03/24 09:42:39;;;;;;;13.75;7.45;;;18.30;99.90;;;;;;5092991;28;20403;-75
2022/03/24 09:45:09;;;;;;;11.38;6.30;;;18.30;99.90;;;;;;5092579;28;20403;-86
2022/03/24 09:47:37;;;;;;;19.15;15.77;;;18.30;99.90;;;;;;5091993;28;20401;-85
2022/03/24 09:50:06;;;;;;;22.30;19.98;;;18.40;99.90;;;;;;5093373;28;20380;-83
2022/03/24 09:52:33;;;;;;;17.43;14.90;;;18.40;99.90;;;;;;5093256;28;20376;-81
2022/03/24 09:55:00;;;;;;;17.47;13.57;;;18.40;99.90;;;;;;5092520;28;20380;-85
2022/03/24 09:57:27;;;;;;;18.50;11.90;;;18.50;99.90;;;;;;5093006;28;20523;-84
2022/03/24 09:59:56;;;;;;;13.35;9.10;;;18.50;99.90;;;;;;5092660;28;20423;-81
2022/03/24 10:02:23;;;;;;;14.27;8.95;;;18.50;99.90;;;;;;5093213;28;20852;-79
2022/03/24 10:05:04;;;;;;;13.55;8.20;;;18.50;99.90;;;;;;5092220;28;20396;-81
2022/03/24 10:07:44;;;;;;;14.30;7.75;;;18.50;99.90;;;;;;5092719;28;20387;-79
2022/03/24 10:10:24;;;;;;;13.25;6.60;;;18.50;99.90;;;;;;5092495;28;20395;-83
2022/03/24 10:12:52;;;;;;;11.68;6.18;;;18.40;99.90;;;;;;5092873;28;20389;-85
2022/03/24 10:15:20;;;;;;;12.23;6.65;;;18.40;99.90;;;;;;5092638;28;20375;-85
2022/03/24 10:17:56;;;;;;;13.20;6.10;;;18.40;99.90;;;;;;5093423;28;20379;-80
2022/03/24 10:20:28;;;;;;;8.77;4.60;;;18.40;99.90;;;;;;5092763;28;20441;-86
2022/03/24 10:23:00;;;;;;;8.00;3.10;;;18.40;99.90;;;;;;5092130;28;20373;-78
2022/03/24 10:25:28;;;;;;;5.78;2.65;;;18.40;99.90;;;;;;5086826;28;20388;-84
2022/03/24 10:28:17;;;;;;;6.25;2.83;;;18.40;99.90;;;;;;5087888;28;20442;-87
2022/03/24 10:30:59;;;;;;;8.18;3.13;;;18.30;99.90;;;;;;5085723;28;20479;-81
2022/03/24 10:33:37;;;;;;;7.57;3.25;;;18.30;99.90;;;;;;5088524;28;20387;-78
2022/03/24 10:36:19;;;;;;;8.57;3.40;;;18.20;99.90;;;;;;5088168;28;20402;-84
2022/03/24 10:38:49;;;;;;;6.45;2.90;;;18.20;99.90;;;;;;5071902;28;20896;-79
2022/03/24 10:41:17;;;;;;;12.77;3.20;;;18.20;99.90;;;;;;5084070;28;20416;-80
2022/03/24 10:43:45;;;;;;;8.63;3.50;;;18.10;99.90;;;;;;5074406;28;20550;-86
2022/03/24 10:46:23;;;;;;;10.10;3.40;;;18.10;99.90;;;;;;5088390;28;21215;-81
2022/03/24 10:48:51;;;;;;;8.90;3.37;;;18.10;99.90;;;;;;5088362;28;20404;-84
2022/03/24 10:51:26;;;;;;;8.00;3.42;;;18.10;99.90;;;;;;5087100;28;20416;-86
2022/03/24 10:54:11;;;;;;;8.48;3.40;;;18.10;99.90;;;;;;5089492;28;20397;-76
2022/03/24 10:56:44;;;;;;;9.45;3.83;;;18.10;99.90;;;;;;5089266;28;20376;-78
2022/03/24 10:59:14;;;;;;;8.95;3.97;;;18.00;99.90;;;;;;5088201;28;20384;-76
2022/03/24 11:01:42;;;;;;;7.97;4.00;;;18.00;99.90;;;;;;5088717;28;20388;-82
2022/03/24 11:04:10;;;;;;;8.83;3.90;;;18.00;99.90;;;;;;5087897;28;20767;-78
2022/03/24 11:06:47;;;;;;;10.60;4.37;;;18.00;99.90;;;;;;5087566;28;20384;-76
2022/03/24 11:09:22;;;;;;;7.70;3.30;;;18.00;99.90;;;;;;5087923;28;20431;-75
2022/03/24 11:12:09;;;;;;;10.05;3.60;;;18.10;99.90;;;;;;5089036;28;20938;-78
2022/03/24 11:14:41;;;;;;;8.68;3.67;;;18.10;99.90;;;;;;5089361;28;20384;-83
2022/03/24 11:17:08;;;;;;;7.82;3.42;;;18.20;99.90;;;;;;5079566;28;20444;-84
2022/03/24 11:19:39;;;;;;;8.97;3.63;;;18.30;99.90;;;;;;5089147;28;20812;-82
2022/03/24 11:22:12;;;;;;;10.20;4.20;;;18.30;99.90;;;;;;5072395;28;20384;-84
2022/03/24 11:24:39;;;;;;;9.75;4.10;;;18.30;99.90;;;;;;5090293;28;20740;-83
2022/03/24 11:27:06;;;;;;;10.05;3.97;;;18.30;99.90;;;;;;5089686;28;20379;-83
2022/03/24 11:29:34;;;;;;;11.85;4.60;;;18.30;99.90;;;;;;5088723;28;20381;-85
2022/03/24 11:32:01;;;;;;;13.05;4.88;;;18.20;99.90;;;;;;5089480;28;20408;-83
2022/03/24 11:34:28;;;;;;;9.95;4.95;;;18.20;99.90;;;;;;5088882;28;20384;-84
2022/03/24 11:36:55;;;;;;;9.75;4.65;;;18.10;99.90;;;;;;5088886;28;20952;-76
2022/03/24 11:39:23;;;;;;;13.25;5.50;;;18.10;99.90;;;;;;5088754;28;20380;-87
2022/03/24 11:41:53;;;;;;;12.23;5.55;;;18.00;99.90;;;;;;5089234;28;20384;-76
2022/03/24 11:44:34;;;;;;;12.82;6.10;;;18.00;99.90;;;;;;5089824;28;20940;-82
2022/03/24 11:47:11;;;;;;;13.02;5.88;;;18.00;99.90;;;;;;5070203;28;20373;-85
2022/03/24 11:49:38;;;;;;;9.88;5.03;;;18.00;99.90;;;;;;5086768;28;20400;-76
2022/03/24 11:52:05;;;;;;;11.65;5.60;;;18.00;99.90;;;;;;5088741;28;20772;-85
2022/03/24 11:54:35;;;;;;;13.38;5.88;;;18.00;99.90;;;;;;5079433;28;20514;-81
2022/03/24 11:57:23;;;;;;;14.07;5.82;;;18.00;99.90;;;;;;5089011;28;20380;-84
2022/03/24 12:00:11;;;;;;;17.45;6.20;;;18.00;99.90;;;;;;5089785;28;20384;-80
2022/03/24 12:02:38;;;;;;;12.15;5.47;;;18.00;99.90;;;;;;5116335;27;20424;-79
2022/03/24 12:05:05;;;;;;;12.55;6.13;;;18.00;99.90;;;;;;5084004;28;20402;-82
2022/03/24 12:07:32;;;;;;;14.57;6.40;;;18.00;99.90;;;;;;5090011;28;20721;-75
2022/03/24 12:10:08;;;;;;;13.98;6.03;;;18.10;99.90;;;;;;5088198;28;20955;-85
2022/03/24 12:12:36;;;;;;;10.88;6.18;;;18.10;99.90;;;;;;5089169;28;20867;-76
2022/03/24 12:15:16;;;;;;;16.60;7.50;;;18.20;99.90;;;;;;5088559;28;20388;-87
2022/03/24 12:18:05;;;;;;;11.98;7.47;;;18.20;99.90;;;;;;5089737;28;20475;-77
2022/03/24 12:20:46;;;;;;;14.05;7.70;;;18.20;99.90;;;;;;5089336;28;20392;-81
2022/03/24 12:23:15;;;;;;;14.52;7.70;;;18.30;99.90;;;;;;5092267;28;20406;-74
2022/03/24 12:25:42;;;;;;;11.85;7.70;;;18.20;99.90;;;;;;5095991;28;20373;-81
2022/03/24 12:28:15;;;;;;;12.35;7.15;;;18.30;99.90;;;;;;5094429;28;20462;-82
2022/03/24 12:30:50;;;;;;;12.23;6.75;;;18.20;99.90;;;;;;5094883;28;20392;-81
2022/03/24 12:33:39;;;;;;;11.50;6.60;;;18.20;99.90;;;;;;5090521;28;20729;-80
2022/03/24 12:36:07;;;;;;;9.73;6.65;;;18.20;99.90;;;;;;5100797;28;20403;-86
2022/03/24 12:38:34;;;;;;;11.82;6.28;;;18.20;99.90;;;;;;5103202;28;20918;-81
2022/03/24 12:41:07;;;;;;;9.57;5.32;;;18.20;99.90;;;;;;5090779;28;20391;-77
2022/03/24 12:43:59;;;;;;;13.57;6.80;;;18.30;99.90;;;;;;5090298;28;20420;-85
2022/03/24 12:46:36;;;;;;;12.52;6.97;;;18.30;99.90;;;;;;5090802;28;20492;-84
2022/03/24 12:49:28;;;;;;;11.85;7.50;;;18.30;99.90;;;;;;5079928;28;20483;-81
2022/03/24 12:52:15;;;;;;;10.70;5.65;;;18.20;99.90;;;;;;5085842;28;20405;-82